sensor_id;sensor_type;location;lat;lon;timestamp;P1;durP1;ratioP1;P2;durP2;ratioP2
45274;SDS011;31019;43.780;25.948;2023-08-31T00:01:18;57.67;;;53.15;;
45274;SDS011;31019;43.780;25.948;2023-08-31T00:03:45;57.42;;;52.92;;
45274;SDS011;31019;43.780;25.948;2023-08-31T00:06:12;54.78;;;50.28;;
45274;SDS011;31019;43.780;25.948;2023-08-31T00:08:39;54.90;;;50.40;;
45274;SDS011;31019;43.780;25.948;2023-08-31T00:11:06;58.95;;;54.05;;
45274;SDS011;31019;43.780;25.948;2023-08-31T00:13:33;50.25;;;46.03;;
45274;SDS011;31019;43.780;25.948;2023-08-31T00:16:00;60.40;;;55.63;;
45274;SDS011;31019;43.780;25.948;2023-08-31T00:18:28;65.97;;;60.88;;
45274;SDS011;31019;43.780;25.948;2023-08-31T00:20:55;56.72;;;51.90;;
45274;SDS011;31019;43.780;25.948;2023-08-31T00:23:22;55.50;;;51.17;;
45274;SDS011;31019;43.780;25.948;2023-08-31T00:25:49;54.22;;;49.38;;
45274;SDS011;31019;43.780;25.948;2023-08-31T00:28:17;54.45;;;49.88;;
45274;SDS011;31019;43.780;25.948;2023-08-31T00:30:44;56.40;;;51.92;;
45274;SDS011;31019;43.780;25.948;2023-08-31T00:33:11;47.33;;;43.45;;
45274;SDS011;31019;43.780;25.948;2023-08-31T00:35:40;57.53;;;53.03;;
45274;SDS011;31019;43.780;25.948;2023-08-31T00:38:09;52.42;;;48.13;;
45274;SDS011;31019;43.780;25.948;2023-08-31T00:40:38;52.45;;;48.05;;
45274;SDS011;31019;43.780;25.948;2023-08-31T00:43:06;41.05;;;37.45;;
45274;SDS011;31019;43.780;25.948;2023-08-31T00:45:33;45.28;;;41.47;;
45274;SDS011;31019;43.780;25.948;2023-08-31T00:48:00;51.35;;;47.35;;
45274;SDS011;31019;43.780;25.948;2023-08-31T00:50:28;50.22;;;46.22;;
45274;SDS011;31019;43.780;25.948;2023-08-31T00:52:56;54.63;;;50.40;;
45274;SDS011;31019;43.780;25.948;2023-08-31T00:55:23;58.72;;;54.13;;
45274;SDS011;31019;43.780;25.948;2023-08-31T00:57:51;55.05;;;50.83;;
45274;SDS011;31019;43.780;25.948;2023-08-31T01:00:18;43.22;;;39.42;;
45274;SDS011;31019;43.780;25.948;2023-08-31T01:02:48;45.28;;;41.47;;
45274;SDS011;31019;43.780;25.948;2023-08-31T01:05:29;48.63;;;44.72;;
45274;SDS011;31019;43.780;25.948;2023-08-31T01:08:10;40.50;;;36.90;;
45274;SDS011;31019;43.780;25.948;2023-08-31T01:10:47;38.90;;;35.63;;
45274;SDS011;31019;43.780;25.948;2023-08-31T01:13:28;39.45;;;35.95;;
45274;SDS011;31019;43.780;25.948;2023-08-31T01:15:59;48.97;;;45.08;;
45274;SDS011;31019;43.780;25.948;2023-08-31T01:18:31;49.85;;;45.75;;
45274;SDS011;31019;43.780;25.948;2023-08-31T01:21:02;52.22;;;48.03;;
45274;SDS011;31019;43.780;25.948;2023-08-31T01:23:49;58.17;;;53.67;;
45274;SDS011;31019;43.780;25.948;2023-08-31T01:26:18;49.10;;;45.10;;
45274;SDS011;31019;43.780;25.948;2023-08-31T01:28:46;47.45;;;43.60;;
45274;SDS011;31019;43.780;25.948;2023-08-31T01:31:13;46.42;;;42.53;;
45274;SDS011;31019;43.780;25.948;2023-08-31T01:37:03;53.30;;;48.90;;
45274;SDS011;31019;43.780;25.948;2023-08-31T01:39:49;68.25;;;63.15;;
45274;SDS011;31019;43.780;25.948;2023-08-31T01:42:22;59.03;;;54.42;;
45274;SDS011;31019;43.780;25.948;2023-08-31T01:44:52;54.78;;;50.38;;
45274;SDS011;31019;43.780;25.948;2023-08-31T01:47:22;51.08;;;46.88;;
45274;SDS011;31019;43.780;25.948;2023-08-31T01:49:50;49.55;;;45.45;;
45274;SDS011;31019;43.780;25.948;2023-08-31T01:52:18;50.15;;;46.05;;
45274;SDS011;31019;43.780;25.948;2023-08-31T01:54:45;58.80;;;54.17;;
45274;SDS011;31019;43.780;25.948;2023-08-31T01:57:13;52.08;;;47.78;;
45274;SDS011;31019;43.780;25.948;2023-08-31T01:59:40;56.30;;;52.00;;
45274;SDS011;31019;43.780;25.948;2023-08-31T02:02:07;54.33;;;50.05;;
45274;SDS011;31019;43.780;25.948;2023-08-31T02:04:34;63.03;;;58.13;;
45274;SDS011;31019;43.780;25.948;2023-08-31T02:07:01;61.15;;;56.45;;
45274;SDS011;31019;43.780;25.948;2023-08-31T02:09:28;56.75;;;52.25;;
45274;SDS011;31019;43.780;25.948;2023-08-31T02:11:55;63.30;;;58.60;;
45274;SDS011;31019;43.780;25.948;2023-08-31T02:14:23;58.80;;;54.58;;
45274;SDS011;31019;43.780;25.948;2023-08-31T02:16:50;65.60;;;60.72;;
45274;SDS011;31019;43.780;25.948;2023-08-31T02:19:17;64.88;;;60.35;;
45274;SDS011;31019;43.780;25.948;2023-08-31T02:21:44;78.65;;;73.45;;
45274;SDS011;31019;43.780;25.948;2023-08-31T02:24:10;49.95;;;46.05;;
45274;SDS011;31019;43.780;25.948;2023-08-31T02:26:36;54.03;;;49.92;;
45274;SDS011;31019;43.780;25.948;2023-08-31T02:29:03;69.05;;;64.25;;
45274;SDS011;31019;43.780;25.948;2023-08-31T02:31:32;56.63;;;52.40;;
45274;SDS011;31019;43.780;25.948;2023-08-31T02:33:59;49.53;;;45.80;;
45274;SDS011;31019;43.780;25.948;2023-08-31T02:36:28;50.78;;;46.95;;
45274;SDS011;31019;43.780;25.948;2023-08-31T02:38:55;75.80;;;70.65;;
45274;SDS011;31019;43.780;25.948;2023-08-31T02:41:22;70.72;;;65.72;;
45274;SDS011;31019;43.780;25.948;2023-08-31T02:43:50;64.35;;;59.20;;
45274;SDS011;31019;43.780;25.948;2023-08-31T02:46:17;58.95;;;54.53;;
45274;SDS011;31019;43.780;25.948;2023-08-31T02:48:45;57.28;;;52.88;;
45274;SDS011;31019;43.780;25.948;2023-08-31T02:51:12;54.08;;;49.78;;
45274;SDS011;31019;43.780;25.948;2023-08-31T02:53:39;58.00;;;53.55;;
45274;SDS011;31019;43.780;25.948;2023-08-31T02:56:06;52.85;;;48.50;;
45274;SDS011;31019;43.780;25.948;2023-08-31T02:58:33;76.65;;;71.25;;
45274;SDS011;31019;43.780;25.948;2023-08-31T03:01:07;75.25;;;69.95;;
45274;SDS011;31019;43.780;25.948;2023-08-31T03:03:36;100.22;;;93.80;;
45274;SDS011;31019;43.780;25.948;2023-08-31T03:06:05;84.88;;;79.18;;
45274;SDS011;31019;43.780;25.948;2023-08-31T03:08:32;63.05;;;58.45;;
45274;SDS011;31019;43.780;25.948;2023-08-31T03:10:59;66.15;;;61.35;;
45274;SDS011;31019;43.780;25.948;2023-08-31T03:13:26;55.75;;;51.40;;
45274;SDS011;31019;43.780;25.948;2023-08-31T03:15:53;49.72;;;45.92;;
45274;SDS011;31019;43.780;25.948;2023-08-31T03:18:21;64.53;;;60.03;;
45274;SDS011;31019;43.780;25.948;2023-08-31T03:20:48;57.20;;;53.00;;
45274;SDS011;31019;43.780;25.948;2023-08-31T03:23:16;58.75;;;54.33;;
45274;SDS011;31019;43.780;25.948;2023-08-31T03:25:43;66.53;;;61.80;;
45274;SDS011;31019;43.780;25.948;2023-08-31T03:28:10;50.67;;;46.88;;
45274;SDS011;31019;43.780;25.948;2023-08-31T03:30:37;60.85;;;56.20;;
45274;SDS011;31019;43.780;25.948;2023-08-31T03:33:04;50.25;;;46.45;;
45274;SDS011;31019;43.780;25.948;2023-08-31T03:35:31;53.17;;;49.22;;
45274;SDS011;31019;43.780;25.948;2023-08-31T03:37:58;64.13;;;59.58;;
45274;SDS011;31019;43.780;25.948;2023-08-31T03:40:27;49.85;;;46.15;;
45274;SDS011;31019;43.780;25.948;2023-08-31T03:42:54;53.53;;;49.72;;
45274;SDS011;31019;43.780;25.948;2023-08-31T03:45:42;48.00;;;44.58;;
45274;SDS011;31019;43.780;25.948;2023-08-31T03:48:30;38.85;;;35.90;;
45274;SDS011;31019;43.780;25.948;2023-08-31T03:50:57;42.83;;;39.63;;
45274;SDS011;31019;43.780;25.948;2023-08-31T03:53:24;48.53;;;44.53;;
45274;SDS011;31019;43.780;25.948;2023-08-31T03:55:52;54.65;;;50.80;;
45274;SDS011;31019;43.780;25.948;2023-08-31T03:58:21;47.72;;;43.20;;
45274;SDS011;31019;43.780;25.948;2023-08-31T04:00:48;58.30;;;54.30;;
45274;SDS011;31019;43.780;25.948;2023-08-31T04:03:16;51.80;;;47.70;;
45274;SDS011;31019;43.780;25.948;2023-08-31T04:05:43;51.90;;;48.10;;
45274;SDS011;31019;43.780;25.948;2023-08-31T04:08:09;41.70;;;38.40;;
45274;SDS011;31019;43.780;25.948;2023-08-31T04:10:36;45.25;;;41.75;;
45274;SDS011;31019;43.780;25.948;2023-08-31T04:13:05;44.15;;;40.55;;
45274;SDS011;31019;43.780;25.948;2023-08-31T04:15:32;41.25;;;38.03;;
45274;SDS011;31019;43.780;25.948;2023-08-31T04:17:59;45.28;;;41.97;;
45274;SDS011;31019;43.780;25.948;2023-08-31T04:20:29;37.60;;;34.70;;
45274;SDS011;31019;43.780;25.948;2023-08-31T04:22:56;36.45;;;33.65;;
45274;SDS011;31019;43.780;25.948;2023-08-31T04:25:23;34.67;;;31.88;;
45274;SDS011;31019;43.780;25.948;2023-08-31T04:27:50;35.35;;;32.55;;
45274;SDS011;31019;43.780;25.948;2023-08-31T04:30:18;36.17;;;33.28;;
45274;SDS011;31019;43.780;25.948;2023-08-31T04:32:45;38.05;;;35.05;;
45274;SDS011;31019;43.780;25.948;2023-08-31T04:35:13;40.35;;;37.25;;
45274;SDS011;31019;43.780;25.948;2023-08-31T04:37:40;36.55;;;33.75;;
45274;SDS011;31019;43.780;25.948;2023-08-31T04:40:07;34.50;;;31.70;;
45274;SDS011;31019;43.780;25.948;2023-08-31T04:42:37;34.75;;;32.05;;
45274;SDS011;31019;43.780;25.948;2023-08-31T04:45:05;32.75;;;30.05;;
45274;SDS011;31019;43.780;25.948;2023-08-31T04:47:34;31.52;;;28.83;;
45274;SDS011;31019;43.780;25.948;2023-08-31T04:50:01;37.45;;;34.35;;
45274;SDS011;31019;43.780;25.948;2023-08-31T04:52:31;35.53;;;32.40;;
45274;SDS011;31019;43.780;25.948;2023-08-31T04:55:00;34.15;;;31.25;;
45274;SDS011;31019;43.780;25.948;2023-08-31T04:57:28;32.08;;;29.38;;
45274;SDS011;31019;43.780;25.948;2023-08-31T04:59:56;34.55;;;31.90;;
45274;SDS011;31019;43.780;25.948;2023-08-31T05:02:23;32.30;;;29.70;;
45274;SDS011;31019;43.780;25.948;2023-08-31T05:04:58;32.10;;;29.60;;
45274;SDS011;31019;43.780;25.948;2023-08-31T05:07:27;31.73;;;29.10;;
45274;SDS011;31019;43.780;25.948;2023-08-31T05:09:54;33.60;;;30.70;;
45274;SDS011;31019;43.780;25.948;2023-08-31T05:12:21;37.95;;;34.85;;
45274;SDS011;31019;43.780;25.948;2023-08-31T05:14:48;39.35;;;36.25;;
45274;SDS011;31019;43.780;25.948;2023-08-31T05:17:15;53.05;;;48.95;;
45274;SDS011;31019;43.780;25.948;2023-08-31T05:19:42;44.80;;;40.45;;
45274;SDS011;31019;43.780;25.948;2023-08-31T05:22:10;41.30;;;38.10;;
45274;SDS011;31019;43.780;25.948;2023-08-31T05:24:37;39.28;;;35.92;;
45274;SDS011;31019;43.780;25.948;2023-08-31T05:27:04;40.70;;;37.42;;
45274;SDS011;31019;43.780;25.948;2023-08-31T05:29:31;38.03;;;34.97;;
45274;SDS011;31019;43.780;25.948;2023-08-31T05:31:58;40.63;;;37.63;;
45274;SDS011;31019;43.780;25.948;2023-08-31T05:34:25;44.30;;;40.70;;
45274;SDS011;31019;43.780;25.948;2023-08-31T05:36:52;40.40;;;37.10;;
45274;SDS011;31019;43.780;25.948;2023-08-31T05:39:20;41.88;;;38.38;;
45274;SDS011;31019;43.780;25.948;2023-08-31T05:41:47;37.95;;;34.75;;
45274;SDS011;31019;43.780;25.948;2023-08-31T05:44:14;47.13;;;43.47;;
45274;SDS011;31019;43.780;25.948;2023-08-31T05:46:40;42.20;;;38.58;;
45274;SDS011;31019;43.780;25.948;2023-08-31T05:49:07;40.38;;;36.95;;
45274;SDS011;31019;43.780;25.948;2023-08-31T05:51:34;44.42;;;40.83;;
45274;SDS011;31019;43.780;25.948;2023-08-31T05:54:01;45.95;;;42.05;;
45274;SDS011;31019;43.780;25.948;2023-08-31T05:56:30;48.65;;;44.60;;
45274;SDS011;31019;43.780;25.948;2023-08-31T05:58:57;43.75;;;40.22;;
45274;SDS011;31019;43.780;25.948;2023-08-31T06:01:24;44.45;;;40.72;;
45274;SDS011;31019;43.780;25.948;2023-08-31T06:03:50;45.83;;;41.30;;
45274;SDS011;31019;43.780;25.948;2023-08-31T06:06:17;43.80;;;39.92;;
45274;SDS011;31019;43.780;25.948;2023-08-31T06:08:44;45.85;;;41.80;;
45274;SDS011;31019;43.780;25.948;2023-08-31T06:11:11;46.95;;;42.60;;
45274;SDS011;31019;43.780;25.948;2023-08-31T06:13:40;44.70;;;38.88;;
45274;SDS011;31019;43.780;25.948;2023-08-31T06:16:08;48.80;;;44.60;;
45274;SDS011;31019;43.780;25.948;2023-08-31T06:18:34;39.80;;;36.30;;
45274;SDS011;31019;43.780;25.948;2023-08-31T06:21:01;41.70;;;38.10;;
45274;SDS011;31019;43.780;25.948;2023-08-31T06:23:28;41.55;;;37.85;;
45274;SDS011;31019;43.780;25.948;2023-08-31T06:25:57;43.72;;;40.15;;
45274;SDS011;31019;43.780;25.948;2023-08-31T06:28:24;41.75;;;38.22;;
45274;SDS011;31019;43.780;25.948;2023-08-31T06:30:52;46.95;;;42.72;;
45274;SDS011;31019;43.780;25.948;2023-08-31T06:33:19;45.15;;;41.45;;
45274;SDS011;31019;43.780;25.948;2023-08-31T06:35:47;40.00;;;36.60;;
45274;SDS011;31019;43.780;25.948;2023-08-31T06:38:16;39.53;;;35.67;;
45274;SDS011;31019;43.780;25.948;2023-08-31T06:40:43;37.28;;;34.47;;
45274;SDS011;31019;43.780;25.948;2023-08-31T06:43:11;40.03;;;36.72;;
45274;SDS011;31019;43.780;25.948;2023-08-31T06:45:37;37.13;;;34.50;;
45274;SDS011;31019;43.780;25.948;2023-08-31T06:48:06;37.45;;;34.08;;
45274;SDS011;31019;43.780;25.948;2023-08-31T06:50:33;39.85;;;36.75;;
45274;SDS011;31019;43.780;25.948;2023-08-31T06:53:01;36.70;;;33.97;;
45274;SDS011;31019;43.780;25.948;2023-08-31T06:55:28;37.13;;;34.22;;
45274;SDS011;31019;43.780;25.948;2023-08-31T06:57:57;33.35;;;30.80;;
45274;SDS011;31019;43.780;25.948;2023-08-31T07:00:24;34.20;;;31.60;;
45274;SDS011;31019;43.780;25.948;2023-08-31T07:02:51;30.50;;;28.20;;
45274;SDS011;31019;43.780;25.948;2023-08-31T07:05:20;33.35;;;30.77;;
45274;SDS011;31019;43.780;25.948;2023-08-31T07:07:51;30.08;;;27.52;;
45274;SDS011;31019;43.780;25.948;2023-08-31T07:10:19;30.33;;;28.02;;
45274;SDS011;31019;43.780;25.948;2023-08-31T07:12:46;30.83;;;28.52;;
45274;SDS011;31019;43.780;25.948;2023-08-31T07:15:13;27.70;;;25.40;;
45274;SDS011;31019;43.780;25.948;2023-08-31T07:17:39;26.77;;;24.40;;
45274;SDS011;31019;43.780;25.948;2023-08-31T07:20:07;27.15;;;25.05;;
45274;SDS011;31019;43.780;25.948;2023-08-31T07:22:37;25.88;;;23.88;;
45274;SDS011;31019;43.780;25.948;2023-08-31T07:25:07;25.90;;;24.00;;
45274;SDS011;31019;43.780;25.948;2023-08-31T07:27:34;27.55;;;25.10;;
45274;SDS011;31019;43.780;25.948;2023-08-31T07:30:01;25.40;;;23.50;;
45274;SDS011;31019;43.780;25.948;2023-08-31T07:32:29;23.35;;;21.45;;
45274;SDS011;31019;43.780;25.948;2023-08-31T07:34:56;26.00;;;23.65;;
45274;SDS011;31019;43.780;25.948;2023-08-31T07:37:23;25.02;;;23.33;;
45274;SDS011;31019;43.780;25.948;2023-08-31T07:39:51;26.55;;;24.65;;
45274;SDS011;31019;43.780;25.948;2023-08-31T07:42:18;23.67;;;21.88;;
45274;SDS011;31019;43.780;25.948;2023-08-31T07:44:45;28.98;;;27.08;;
45274;SDS011;31019;43.780;25.948;2023-08-31T07:47:12;31.70;;;29.80;;
45274;SDS011;31019;43.780;25.948;2023-08-31T07:49:38;30.95;;;29.05;;
45274;SDS011;31019;43.780;25.948;2023-08-31T07:52:05;34.60;;;32.50;;
45274;SDS011;31019;43.780;25.948;2023-08-31T07:54:32;32.92;;;30.23;;
45274;SDS011;31019;43.780;25.948;2023-08-31T07:57:13;26.90;;;25.00;;
45274;SDS011;31019;43.780;25.948;2023-08-31T07:59:40;28.77;;;26.23;;
45274;SDS011;31019;43.780;25.948;2023-08-31T08:02:08;34.33;;;32.15;;
45274;SDS011;31019;43.780;25.948;2023-08-31T08:04:37;33.92;;;31.73;;
45274;SDS011;31019;43.780;25.948;2023-08-31T08:07:03;31.63;;;29.35;;
45274;SDS011;31019;43.780;25.948;2023-08-31T08:09:33;28.55;;;26.58;;
45274;SDS011;31019;43.780;25.948;2023-08-31T08:12:00;28.90;;;26.30;;
45274;SDS011;31019;43.780;25.948;2023-08-31T08:14:29;29.90;;;27.90;;
45274;SDS011;31019;43.780;25.948;2023-08-31T08:16:56;27.90;;;26.20;;
45274;SDS011;31019;43.780;25.948;2023-08-31T08:19:22;27.45;;;25.75;;
45274;SDS011;31019;43.780;25.948;2023-08-31T08:21:49;33.25;;;30.58;;
45274;SDS011;31019;43.780;25.948;2023-08-31T08:24:16;31.98;;;29.88;;
45274;SDS011;31019;43.780;25.948;2023-08-31T08:26:43;27.67;;;25.58;;
45274;SDS011;31019;43.780;25.948;2023-08-31T08:29:10;31.55;;;29.02;;
45274;SDS011;31019;43.780;25.948;2023-08-31T08:31:38;30.70;;;28.70;;
45274;SDS011;31019;43.780;25.948;2023-08-31T08:34:05;33.30;;;30.88;;
45274;SDS011;31019;43.780;25.948;2023-08-31T08:36:32;30.15;;;28.25;;
45274;SDS011;31019;43.780;25.948;2023-08-31T08:38:59;31.38;;;29.17;;
45274;SDS011;31019;43.780;25.948;2023-08-31T08:41:26;28.73;;;26.52;;
45274;SDS011;31019;43.780;25.948;2023-08-31T08:43:58;29.00;;;26.80;;
45274;SDS011;31019;43.780;25.948;2023-08-31T08:46:30;28.92;;;26.67;;
45274;SDS011;31019;43.780;25.948;2023-08-31T08:49:00;31.33;;;29.13;;
45274;SDS011;31019;43.780;25.948;2023-08-31T08:51:28;29.33;;;27.33;;
45274;SDS011;31019;43.780;25.948;2023-08-31T08:53:56;28.50;;;26.50;;
45274;SDS011;31019;43.780;25.948;2023-08-31T08:56:26;27.95;;;26.08;;
45274;SDS011;31019;43.780;25.948;2023-08-31T08:58:52;25.25;;;23.45;;
45274;SDS011;31019;43.780;25.948;2023-08-31T09:01:19;25.77;;;23.88;;
45274;SDS011;31019;43.780;25.948;2023-08-31T09:03:48;25.60;;;23.80;;
45274;SDS011;31019;43.780;25.948;2023-08-31T09:06:17;25.30;;;23.30;;
45274;SDS011;31019;43.780;25.948;2023-08-31T09:08:44;25.95;;;23.45;;
45274;SDS011;31019;43.780;25.948;2023-08-31T09:11:19;25.90;;;23.67;;
45274;SDS011;31019;43.780;25.948;2023-08-31T09:13:47;28.80;;;26.60;;
45274;SDS011;31019;43.780;25.948;2023-08-31T09:16:22;26.75;;;24.65;;
45274;SDS011;31019;43.780;25.948;2023-08-31T09:18:50;27.60;;;25.40;;
45274;SDS011;31019;43.780;25.948;2023-08-31T09:21:18;26.65;;;24.75;;
45274;SDS011;31019;43.780;25.948;2023-08-31T09:23:47;28.20;;;26.20;;
45274;SDS011;31019;43.780;25.948;2023-08-31T09:26:21;26.30;;;24.55;;
45274;SDS011;31019;43.780;25.948;2023-08-31T09:28:48;30.05;;;27.75;;
45274;SDS011;31019;43.780;25.948;2023-08-31T09:31:15;28.38;;;26.45;;
45274;SDS011;31019;43.780;25.948;2023-08-31T09:33:49;27.17;;;25.33;;
45274;SDS011;31019;43.780;25.948;2023-08-31T09:36:16;29.20;;;27.30;;
45274;SDS011;31019;43.780;25.948;2023-08-31T09:38:47;27.70;;;25.90;;
45274;SDS011;31019;43.780;25.948;2023-08-31T09:41:14;26.02;;;24.15;;
45274;SDS011;31019;43.780;25.948;2023-08-31T09:43:41;26.90;;;24.88;;
45274;SDS011;31019;43.780;25.948;2023-08-31T09:46:08;25.10;;;23.40;;
45274;SDS011;31019;43.780;25.948;2023-08-31T09:48:36;26.77;;;25.17;;
45274;SDS011;31019;43.780;25.948;2023-08-31T09:51:06;27.25;;;25.25;;
45274;SDS011;31019;43.780;25.948;2023-08-31T09:53:37;23.50;;;22.00;;
45274;SDS011;31019;43.780;25.948;2023-08-31T09:56:04;23.20;;;21.50;;
45274;SDS011;31019;43.780;25.948;2023-08-31T09:58:32;24.17;;;22.77;;
45274;SDS011;31019;43.780;25.948;2023-08-31T10:00:59;24.05;;;22.65;;
45274;SDS011;31019;43.780;25.948;2023-08-31T10:03:27;21.80;;;20.35;;
45274;SDS011;31019;43.780;25.948;2023-08-31T10:05:54;22.02;;;20.52;;
45274;SDS011;31019;43.780;25.948;2023-08-31T10:08:22;22.67;;;21.27;;
45274;SDS011;31019;43.780;25.948;2023-08-31T10:10:52;21.80;;;20.50;;
45274;SDS011;31019;43.780;25.948;2023-08-31T10:13:20;22.13;;;20.75;;
45274;SDS011;31019;43.780;25.948;2023-08-31T10:15:48;20.88;;;19.67;;
45274;SDS011;31019;43.780;25.948;2023-08-31T10:18:15;20.30;;;18.90;;
45274;SDS011;31019;43.780;25.948;2023-08-31T10:20:43;21.88;;;20.48;;
45274;SDS011;31019;43.780;25.948;2023-08-31T10:23:10;26.42;;;20.00;;
45274;SDS011;31019;43.780;25.948;2023-08-31T10:28:38;21.40;;;20.00;;
45274;SDS011;31019;43.780;25.948;2023-08-31T10:31:07;25.98;;;24.38;;
45274;SDS011;31019;43.780;25.948;2023-08-31T10:33:37;23.67;;;22.27;;
45274;SDS011;31019;43.780;25.948;2023-08-31T10:36:09;22.50;;;20.98;;
45274;SDS011;31019;43.780;25.948;2023-08-31T10:38:37;22.92;;;21.52;;
45274;SDS011;31019;43.780;25.948;2023-08-31T10:41:21;22.63;;;21.23;;
45274;SDS011;31019;43.780;25.948;2023-08-31T10:43:50;23.40;;;21.95;;
45274;SDS011;31019;43.780;25.948;2023-08-31T10:46:28;34.10;;;32.20;;
45274;SDS011;31019;43.780;25.948;2023-08-31T10:48:57;26.75;;;24.95;;
45274;SDS011;31019;43.780;25.948;2023-08-31T10:51:25;26.23;;;24.42;;
45274;SDS011;31019;43.780;25.948;2023-08-31T10:54:07;28.65;;;26.60;;
45274;SDS011;31019;43.780;25.948;2023-08-31T10:56:42;24.60;;;22.80;;
45274;SDS011;31019;43.780;25.948;2023-08-31T10:59:19;24.98;;;23.17;;
45274;SDS011;31019;43.780;25.948;2023-08-31T11:01:52;25.30;;;23.50;;
45274;SDS011;31019;43.780;25.948;2023-08-31T11:04:20;25.35;;;23.35;;
45274;SDS011;31019;43.780;25.948;2023-08-31T11:06:47;27.90;;;25.90;;
45274;SDS011;31019;43.780;25.948;2023-08-31T11:09:18;23.88;;;22.08;;
45274;SDS011;31019;43.780;25.948;2023-08-31T11:11:48;25.98;;;23.80;;
45274;SDS011;31019;43.780;25.948;2023-08-31T11:14:14;23.67;;;22.08;;
45274;SDS011;31019;43.780;25.948;2023-08-31T11:16:42;22.92;;;21.23;;
45274;SDS011;31019;43.780;25.948;2023-08-31T11:19:10;26.48;;;24.27;;
45274;SDS011;31019;43.780;25.948;2023-08-31T11:21:37;31.52;;;29.55;;
45274;SDS011;31019;43.780;25.948;2023-08-31T11:24:04;30.58;;;27.70;;
45274;SDS011;31019;43.780;25.948;2023-08-31T11:26:31;28.85;;;26.85;;
45274;SDS011;31019;43.780;25.948;2023-08-31T11:29:01;30.75;;;28.85;;
45274;SDS011;31019;43.780;25.948;2023-08-31T11:31:31;30.52;;;28.48;;
45274;SDS011;31019;43.780;25.948;2023-08-31T11:33:58;28.60;;;26.63;;
45274;SDS011;31019;43.780;25.948;2023-08-31T11:36:28;28.27;;;26.48;;
45274;SDS011;31019;43.780;25.948;2023-08-31T11:38:54;29.98;;;28.08;;
45274;SDS011;31019;43.780;25.948;2023-08-31T11:41:22;29.42;;;27.63;;
45274;SDS011;31019;43.780;25.948;2023-08-31T11:43:49;32.42;;;30.42;;
45274;SDS011;31019;43.780;25.948;2023-08-31T11:46:18;26.33;;;24.52;;
45274;SDS011;31019;43.780;25.948;2023-08-31T11:48:45;30.42;;;28.42;;
45274;SDS011;31019;43.780;25.948;2023-08-31T11:51:12;27.60;;;25.80;;
45274;SDS011;31019;43.780;25.948;2023-08-31T11:53:39;23.80;;;22.10;;
45274;SDS011;31019;43.780;25.948;2023-08-31T11:56:07;29.55;;;27.65;;
45274;SDS011;31019;43.780;25.948;2023-08-31T11:58:39;28.55;;;26.65;;
45274;SDS011;31019;43.780;25.948;2023-08-31T12:01:07;30.85;;;28.75;;
45274;SDS011;31019;43.780;25.948;2023-08-31T12:03:43;29.48;;;27.48;;
45274;SDS011;31019;43.780;25.948;2023-08-31T12:06:10;28.52;;;26.83;;
45274;SDS011;31019;43.780;25.948;2023-08-31T12:08:37;32.05;;;29.95;;
45274;SDS011;31019;43.780;25.948;2023-08-31T12:11:06;28.85;;;26.95;;
45274;SDS011;31019;43.780;25.948;2023-08-31T12:13:33;26.35;;;24.67;;
45274;SDS011;31019;43.780;25.948;2023-08-31T12:16:02;30.52;;;28.52;;
45274;SDS011;31019;43.780;25.948;2023-08-31T12:18:29;28.42;;;26.52;;
45274;SDS011;31019;43.780;25.948;2023-08-31T12:21:05;29.88;;;28.08;;
45274;SDS011;31019;43.780;25.948;2023-08-31T12:23:32;28.90;;;27.10;;
45274;SDS011;31019;43.780;25.948;2023-08-31T12:25:59;29.83;;;27.92;;
45274;SDS011;31019;43.780;25.948;2023-08-31T12:28:26;28.05;;;26.25;;
45274;SDS011;31019;43.780;25.948;2023-08-31T12:30:54;29.10;;;27.10;;
45274;SDS011;31019;43.780;25.948;2023-08-31T12:33:24;28.50;;;26.50;;
45274;SDS011;31019;43.780;25.948;2023-08-31T12:38:22;26.25;;;24.45;;
45274;SDS011;31019;43.780;25.948;2023-08-31T12:40:49;26.48;;;24.67;;
45274;SDS011;31019;43.780;25.948;2023-08-31T12:43:16;29.75;;;27.85;;
45274;SDS011;31019;43.780;25.948;2023-08-31T12:45:43;30.65;;;27.95;;
45274;SDS011;31019;43.780;25.948;2023-08-31T12:48:09;28.65;;;26.55;;
45274;SDS011;31019;43.780;25.948;2023-08-31T12:50:36;26.90;;;25.00;;
45274;SDS011;31019;43.780;25.948;2023-08-31T12:53:03;28.92;;;27.02;;
45274;SDS011;31019;43.780;25.948;2023-08-31T12:55:31;28.90;;;26.92;;
45274;SDS011;31019;43.780;25.948;2023-08-31T12:57:58;30.08;;;28.17;;
45274;SDS011;31019;43.780;25.948;2023-08-31T13:00:28;25.38;;;23.67;;
45274;SDS011;31019;43.780;25.948;2023-08-31T13:02:54;24.77;;;23.08;;
45274;SDS011;31019;43.780;25.948;2023-08-31T13:05:21;30.58;;;28.35;;
45274;SDS011;31019;43.780;25.948;2023-08-31T13:07:48;27.80;;;26.00;;
45274;SDS011;31019;43.780;25.948;2023-08-31T13:10:15;25.83;;;24.13;;
45274;SDS011;31019;43.780;25.948;2023-08-31T13:12:44;25.63;;;23.92;;
45274;SDS011;31019;43.780;25.948;2023-08-31T13:15:10;28.17;;;26.38;;
45274;SDS011;31019;43.780;25.948;2023-08-31T13:17:38;27.05;;;25.25;;
45274;SDS011;31019;43.780;25.948;2023-08-31T13:20:05;26.27;;;24.17;;
45274;SDS011;31019;43.780;25.948;2023-08-31T13:22:33;24.77;;;23.17;;
45274;SDS011;31019;43.780;25.948;2023-08-31T13:25:00;27.25;;;25.45;;
45274;SDS011;31019;43.780;25.948;2023-08-31T13:27:27;25.83;;;24.02;;
45274;SDS011;31019;43.780;25.948;2023-08-31T13:29:56;24.38;;;22.65;;
45274;SDS011;31019;43.780;25.948;2023-08-31T13:32:22;26.98;;;25.17;;
45274;SDS011;31019;43.780;25.948;2023-08-31T13:34:49;28.65;;;26.77;;
45274;SDS011;31019;43.780;25.948;2023-08-31T13:37:17;29.08;;;27.13;;
45274;SDS011;31019;43.780;25.948;2023-08-31T13:39:44;26.75;;;25.05;;
45274;SDS011;31019;43.780;25.948;2023-08-31T13:42:11;25.95;;;24.15;;
45274;SDS011;31019;43.780;25.948;2023-08-31T13:44:38;26.13;;;24.35;;
45274;SDS011;31019;43.780;25.948;2023-08-31T13:47:06;25.33;;;23.52;;
45274;SDS011;31019;43.780;25.948;2023-08-31T13:49:33;26.85;;;24.95;;
45274;SDS011;31019;43.780;25.948;2023-08-31T13:52:03;27.25;;;25.45;;
45274;SDS011;31019;43.780;25.948;2023-08-31T13:54:31;25.67;;;23.98;;
45274;SDS011;31019;43.780;25.948;2023-08-31T13:56:59;26.70;;;24.90;;
45274;SDS011;31019;43.780;25.948;2023-08-31T13:59:26;27.85;;;26.05;;
45274;SDS011;31019;43.780;25.948;2023-08-31T14:01:54;30.42;;;28.33;;
45274;SDS011;31019;43.780;25.948;2023-08-31T14:04:22;31.20;;;29.20;;
45274;SDS011;31019;43.780;25.948;2023-08-31T14:06:49;26.63;;;24.92;;
45274;SDS011;31019;43.780;25.948;2023-08-31T14:09:16;27.17;;;24.77;;
45274;SDS011;31019;43.780;25.948;2023-08-31T14:11:44;25.70;;;24.00;;
45274;SDS011;31019;43.780;25.948;2023-08-31T14:14:10;25.92;;;24.23;;
45274;SDS011;31019;43.780;25.948;2023-08-31T14:16:37;28.48;;;26.67;;
45274;SDS011;31019;43.780;25.948;2023-08-31T14:19:05;27.67;;;25.98;;
45274;SDS011;31019;43.780;25.948;2023-08-31T14:21:33;27.23;;;25.48;;
45274;SDS011;31019;43.780;25.948;2023-08-31T14:24:02;26.98;;;25.35;;